Terminal Aerodrome Forecast
Issued by NWS

Home | Current Version | Previous Version | Text Only | Print | Product List | Glossary On
Versions: 1 2 3 4 5 6 7 8 9 10 11 12 13 14 15 16 17 18 19 20 21 22
000
FTUS44 KMAF 050400 AAB
TAFHOB
TAF AMD
KHOB 050432Z 0505/0524 08011KT P6SM SCT080
      TEMPO 0506/0510 VRB20G40KT 5SM TSRA BKN004 OVC050CB
     FM051000 11013KT P6SM -SHRA SCT010 BKN040
     FM051300 13014KT P6SM BKN040=

USA.gov is the U.S. government's official web portal to all federal, state and local government web resources and services.